Terminal Aerodrome Forecast
Issued by NWS Tampa Bay Area, FL

Home | Current Version | Previous Version | Text Only | Print | Product List | Glossary On
Versions: 1 2 3 4 5 6 7 8 9 10 11 12
028
FTUS42 KTBW 181130
TAFSRQ
TAF
KSRQ 181130Z 1812/1912 08003KT P6SM FEW025 BKN250
     FM181400 VRB04KT P6SM SCT025
     FM181800 27008KT P6SM VCTS SCT035CB SCT100 BKN250
      TEMPO 1818/1821 VRB15G25KT 3SM TSRA BKN025CB
     FM182100 31007KT P6SM VCTS SCT045CB BKN100
     FM190200 VRB03KT P6SM VCSH FEW040 SCT100 BKN250
     FM190600 00000KT P6SM FEW100 SCT250=

USA.gov is the U.S. government's official web portal to all federal, state and local government web resources and services.